sensor_id;sensor_type;location;lat;lon;timestamp;P1;durP1;ratioP1;P2;durP2;ratioP2
12306;SDS011;6216;51.146;7.008;2024-03-02T00:00:41;3.57;;;1.47;;
12306;SDS011;6216;51.146;7.008;2024-03-02T00:03:09;2.43;;;1.20;;
12306;SDS011;6216;51.146;7.008;2024-03-02T00:05:37;2.93;;;1.47;;
12306;SDS011;6216;51.146;7.008;2024-03-02T00:08:07;2.17;;;1.57;;
12306;SDS011;6216;51.146;7.008;2024-03-02T00:10:36;2.13;;;1.30;;
12306;SDS011;6216;51.146;7.008;2024-03-02T00:13:06;1.20;;;1.10;;
12306;SDS011;6216;51.146;7.008;2024-03-02T00:15:40;1.50;;;1.10;;
12306;SDS011;6216;51.146;7.008;2024-03-02T00:18:10;1.10;;;1.10;;
12306;SDS011;6216;51.146;7.008;2024-03-02T00:20:39;1.60;;;1.30;;
12306;SDS011;6216;51.146;7.008;2024-03-02T00:23:09;2.33;;;1.10;;
12306;SDS011;6216;51.146;7.008;2024-03-02T00:25:38;1.10;;;1.00;;
12306;SDS011;6216;51.146;7.008;2024-03-02T00:28:11;1.40;;;1.30;;
12306;SDS011;6216;51.146;7.008;2024-03-02T00:30:47;1.30;;;1.20;;
12306;SDS011;6216;51.146;7.008;2024-03-02T00:33:19;1.30;;;1.20;;
12306;SDS011;6216;51.146;7.008;2024-03-02T00:35:48;1.20;;;1.10;;
12306;SDS011;6216;51.146;7.008;2024-03-02T00:38:17;1.37;;;1.10;;
12306;SDS011;6216;51.146;7.008;2024-03-02T00:40:45;1.20;;;1.00;;
12306;SDS011;6216;51.146;7.008;2024-03-02T00:43:23;1.47;;;1.27;;
12306;SDS011;6216;51.146;7.008;2024-03-02T00:45:59;1.20;;;1.10;;
12306;SDS011;6216;51.146;7.008;2024-03-02T00:48:28;3.33;;;1.07;;
12306;SDS011;6216;51.146;7.008;2024-03-02T00:50:57;5.43;;;1.03;;
12306;SDS011;6216;51.146;7.008;2024-03-02T00:53:27;1.70;;;1.20;;
12306;SDS011;6216;51.146;7.008;2024-03-02T00:55:55;1.20;;;1.10;;
12306;SDS011;6216;51.146;7.008;2024-03-02T00:58:23;2.07;;;1.10;;
12306;SDS011;6216;51.146;7.008;2024-03-02T01:00:52;1.40;;;1.10;;
12306;SDS011;6216;51.146;7.008;2024-03-02T01:03:20;1.37;;;1.10;;
12306;SDS011;6216;51.146;7.008;2024-03-02T01:05:48;1.50;;;1.00;;
12306;SDS011;6216;51.146;7.008;2024-03-02T01:08:16;1.00;;;0.90;;
12306;SDS011;6216;51.146;7.008;2024-03-02T01:10:46;1.30;;;0.97;;
12306;SDS011;6216;51.146;7.008;2024-03-02T01:13:14;1.20;;;1.10;;
12306;SDS011;6216;51.146;7.008;2024-03-02T01:15:43;1.10;;;1.00;;
12306;SDS011;6216;51.146;7.008;2024-03-02T01:18:11;1.60;;;0.93;;
12306;SDS011;6216;51.146;7.008;2024-03-02T01:20:38;0.70;;;0.70;;
12306;SDS011;6216;51.146;7.008;2024-03-02T01:23:06;0.90;;;0.90;;
12306;SDS011;6216;51.146;7.008;2024-03-02T01:25:35;2.97;;;0.97;;
12306;SDS011;6216;51.146;7.008;2024-03-02T01:28:05;2.03;;;0.93;;
12306;SDS011;6216;51.146;7.008;2024-03-02T01:30:33;0.80;;;0.80;;
12306;SDS011;6216;51.146;7.008;2024-03-02T01:33:03;2.00;;;1.10;;
12306;SDS011;6216;51.146;7.008;2024-03-02T01:35:31;1.20;;;0.90;;
12306;SDS011;6216;51.146;7.008;2024-03-02T01:38:01;1.30;;;1.00;;
12306;SDS011;6216;51.146;7.008;2024-03-02T01:40:29;2.00;;;1.13;;
12306;SDS011;6216;51.146;7.008;2024-03-02T01:42:58;0.80;;;0.80;;
12306;SDS011;6216;51.146;7.008;2024-03-02T01:45:27;2.67;;;1.50;;
12306;SDS011;6216;51.146;7.008;2024-03-02T01:47:56;1.60;;;1.00;;
12306;SDS011;6216;51.146;7.008;2024-03-02T01:50:24;1.30;;;1.20;;
12306;SDS011;6216;51.146;7.008;2024-03-02T01:52:53;1.73;;;1.03;;
12306;SDS011;6216;51.146;7.008;2024-03-02T01:55:21;1.77;;;1.17;;
12306;SDS011;6216;51.146;7.008;2024-03-02T01:57:49;2.63;;;1.10;;
12306;SDS011;6216;51.146;7.008;2024-03-02T02:00:18;1.73;;;1.17;;
12306;SDS011;6216;51.146;7.008;2024-03-02T02:02:48;2.83;;;1.30;;
12306;SDS011;6216;51.146;7.008;2024-03-02T02:05:17;1.70;;;1.00;;
12306;SDS011;6216;51.146;7.008;2024-03-02T02:07:45;1.10;;;1.00;;
12306;SDS011;6216;51.146;7.008;2024-03-02T02:10:13;1.30;;;1.20;;
12306;SDS011;6216;51.146;7.008;2024-03-02T02:12:42;1.63;;;1.03;;
12306;SDS011;6216;51.146;7.008;2024-03-02T02:15:23;1.77;;;1.00;;
12306;SDS011;6216;51.146;7.008;2024-03-02T02:17:53;0.80;;;0.77;;
12306;SDS011;6216;51.146;7.008;2024-03-02T02:20:21;3.83;;;1.10;;
12306;SDS011;6216;51.146;7.008;2024-03-02T02:22:58;1.67;;;0.90;;
12306;SDS011;6216;51.146;7.008;2024-03-02T02:25:26;2.23;;;1.00;;
12306;SDS011;6216;51.146;7.008;2024-03-02T02:27:54;1.13;;;0.90;;
12306;SDS011;6216;51.146;7.008;2024-03-02T02:30:23;1.57;;;1.00;;
12306;SDS011;6216;51.146;7.008;2024-03-02T02:32:52;2.40;;;1.10;;
12306;SDS011;6216;51.146;7.008;2024-03-02T02:35:21;1.80;;;1.00;;
12306;SDS011;6216;51.146;7.008;2024-03-02T02:37:50;1.60;;;1.10;;
12306;SDS011;6216;51.146;7.008;2024-03-02T02:40:20;1.83;;;1.17;;
12306;SDS011;6216;51.146;7.008;2024-03-02T02:42:49;1.10;;;1.00;;
12306;SDS011;6216;51.146;7.008;2024-03-02T02:45:18;1.60;;;1.50;;
12306;SDS011;6216;51.146;7.008;2024-03-02T02:47:47;1.00;;;0.90;;
12306;SDS011;6216;51.146;7.008;2024-03-02T02:50:15;2.27;;;1.07;;
12306;SDS011;6216;51.146;7.008;2024-03-02T02:52:43;3.50;;;1.20;;
12306;SDS011;6216;51.146;7.008;2024-03-02T02:55:12;1.30;;;1.00;;
12306;SDS011;6216;51.146;7.008;2024-03-02T02:57:43;2.17;;;0.83;;
12306;SDS011;6216;51.146;7.008;2024-03-02T03:00:31;2.43;;;1.20;;
12306;SDS011;6216;51.146;7.008;2024-03-02T03:02:59;1.10;;;0.97;;
12306;SDS011;6216;51.146;7.008;2024-03-02T03:05:28;1.20;;;1.00;;
12306;SDS011;6216;51.146;7.008;2024-03-02T03:07:56;1.20;;;1.10;;
12306;SDS011;6216;51.146;7.008;2024-03-02T03:10:25;2.60;;;1.10;;
12306;SDS011;6216;51.146;7.008;2024-03-02T03:12:55;1.57;;;1.13;;
12306;SDS011;6216;51.146;7.008;2024-03-02T03:15:23;1.73;;;1.03;;
12306;SDS011;6216;51.146;7.008;2024-03-02T03:17:52;4.73;;;1.10;;
12306;SDS011;6216;51.146;7.008;2024-03-02T03:20:20;1.63;;;0.90;;
12306;SDS011;6216;51.146;7.008;2024-03-02T03:22:49;1.70;;;0.93;;
12306;SDS011;6216;51.146;7.008;2024-03-02T03:25:17;1.50;;;1.40;;
12306;SDS011;6216;51.146;7.008;2024-03-02T03:27:46;1.73;;;1.13;;
12306;SDS011;6216;51.146;7.008;2024-03-02T03:30:15;1.63;;;1.00;;
12306;SDS011;6216;51.146;7.008;2024-03-02T03:32:44;1.03;;;0.93;;
12306;SDS011;6216;51.146;7.008;2024-03-02T03:35:14;1.73;;;1.10;;
12306;SDS011;6216;51.146;7.008;2024-03-02T03:37:42;1.67;;;1.10;;
12306;SDS011;6216;51.146;7.008;2024-03-02T03:40:11;1.10;;;0.90;;
12306;SDS011;6216;51.146;7.008;2024-03-02T03:42:40;1.03;;;1.00;;
12306;SDS011;6216;51.146;7.008;2024-03-02T03:45:09;2.87;;;1.20;;
12306;SDS011;6216;51.146;7.008;2024-03-02T03:47:38;1.50;;;1.00;;
12306;SDS011;6216;51.146;7.008;2024-03-02T03:50:07;1.10;;;1.00;;
12306;SDS011;6216;51.146;7.008;2024-03-02T03:52:35;1.03;;;0.90;;
12306;SDS011;6216;51.146;7.008;2024-03-02T03:55:04;1.53;;;1.00;;
12306;SDS011;6216;51.146;7.008;2024-03-02T03:57:33;0.93;;;0.67;;
12306;SDS011;6216;51.146;7.008;2024-03-02T04:00:02;3.90;;;1.00;;
12306;SDS011;6216;51.146;7.008;2024-03-02T04:02:31;2.17;;;1.17;;
12306;SDS011;6216;51.146;7.008;2024-03-02T04:05:00;1.57;;;1.10;;
12306;SDS011;6216;51.146;7.008;2024-03-02T04:07:31;0.77;;;0.63;;
12306;SDS011;6216;51.146;7.008;2024-03-02T04:09:59;1.30;;;0.90;;
12306;SDS011;6216;51.146;7.008;2024-03-02T04:12:27;0.80;;;0.80;;
12306;SDS011;6216;51.146;7.008;2024-03-02T04:14:56;1.43;;;1.00;;
12306;SDS011;6216;51.146;7.008;2024-03-02T04:17:24;1.23;;;0.80;;
12306;SDS011;6216;51.146;7.008;2024-03-02T04:19:52;1.10;;;0.80;;
12306;SDS011;6216;51.146;7.008;2024-03-02T04:22:22;1.13;;;0.90;;
12306;SDS011;6216;51.146;7.008;2024-03-02T04:24:51;1.27;;;1.00;;
12306;SDS011;6216;51.146;7.008;2024-03-02T04:27:19;1.37;;;1.10;;
12306;SDS011;6216;51.146;7.008;2024-03-02T04:29:48;1.10;;;0.90;;
12306;SDS011;6216;51.146;7.008;2024-03-02T04:32:16;1.03;;;0.90;;
12306;SDS011;6216;51.146;7.008;2024-03-02T04:34:45;1.10;;;1.00;;
12306;SDS011;6216;51.146;7.008;2024-03-02T04:37:14;0.87;;;0.70;;
12306;SDS011;6216;51.146;7.008;2024-03-02T04:39:43;3.33;;;1.10;;
12306;SDS011;6216;51.146;7.008;2024-03-02T04:42:12;0.97;;;0.87;;
12306;SDS011;6216;51.146;7.008;2024-03-02T04:44:40;1.00;;;0.90;;
12306;SDS011;6216;51.146;7.008;2024-03-02T04:47:08;1.27;;;1.00;;
12306;SDS011;6216;51.146;7.008;2024-03-02T04:49:36;2.20;;;1.10;;
12306;SDS011;6216;51.146;7.008;2024-03-02T04:52:05;1.50;;;1.10;;
12306;SDS011;6216;51.146;7.008;2024-03-02T04:54:33;1.93;;;1.20;;
12306;SDS011;6216;51.146;7.008;2024-03-02T04:57:24;2.07;;;1.20;;
12306;SDS011;6216;51.146;7.008;2024-03-02T04:59:52;1.03;;;0.93;;
12306;SDS011;6216;51.146;7.008;2024-03-02T05:02:20;2.43;;;1.20;;
12306;SDS011;6216;51.146;7.008;2024-03-02T05:04:48;1.67;;;1.20;;
12306;SDS011;6216;51.146;7.008;2024-03-02T05:07:17;1.40;;;1.30;;
12306;SDS011;6216;51.146;7.008;2024-03-02T05:09:45;1.40;;;1.17;;
12306;SDS011;6216;51.146;7.008;2024-03-02T05:12:14;1.47;;;1.20;;
12306;SDS011;6216;51.146;7.008;2024-03-02T05:15:17;1.93;;;1.50;;
12306;SDS011;6216;51.146;7.008;2024-03-02T05:17:46;2.43;;;1.23;;
12306;SDS011;6216;51.146;7.008;2024-03-02T05:20:14;2.27;;;1.47;;
12306;SDS011;6216;51.146;7.008;2024-03-02T05:22:43;1.37;;;1.20;;
12306;SDS011;6216;51.146;7.008;2024-03-02T05:25:11;1.87;;;1.50;;
12306;SDS011;6216;51.146;7.008;2024-03-02T05:27:40;1.87;;;1.30;;
12306;SDS011;6216;51.146;7.008;2024-03-02T05:30:08;2.00;;;1.43;;
12306;SDS011;6216;51.146;7.008;2024-03-02T05:32:38;1.43;;;1.13;;
12306;SDS011;6216;51.146;7.008;2024-03-02T05:35:07;2.93;;;1.47;;
12306;SDS011;6216;51.146;7.008;2024-03-02T05:37:37;1.40;;;1.20;;
12306;SDS011;6216;51.146;7.008;2024-03-02T05:40:06;1.20;;;1.10;;
12306;SDS011;6216;51.146;7.008;2024-03-02T05:42:36;1.60;;;1.50;;
12306;SDS011;6216;51.146;7.008;2024-03-02T05:45:05;1.30;;;1.13;;
12306;SDS011;6216;51.146;7.008;2024-03-02T05:47:33;1.30;;;1.20;;
12306;SDS011;6216;51.146;7.008;2024-03-02T05:50:03;3.13;;;1.50;;
12306;SDS011;6216;51.146;7.008;2024-03-02T05:52:33;1.50;;;1.40;;
12306;SDS011;6216;51.146;7.008;2024-03-02T05:55:01;1.73;;;1.27;;
12306;SDS011;6216;51.146;7.008;2024-03-02T05:57:29;1.50;;;1.30;;
12306;SDS011;6216;51.146;7.008;2024-03-02T06:00:14;1.67;;;1.10;;
12306;SDS011;6216;51.146;7.008;2024-03-02T06:02:43;2.73;;;1.10;;
12306;SDS011;6216;51.146;7.008;2024-03-02T06:05:13;2.63;;;1.70;;
12306;SDS011;6216;51.146;7.008;2024-03-02T06:07:42;1.53;;;1.27;;
12306;SDS011;6216;51.146;7.008;2024-03-02T06:10:12;2.27;;;1.20;;
12306;SDS011;6216;51.146;7.008;2024-03-02T06:12:40;2.53;;;1.33;;
12306;SDS011;6216;51.146;7.008;2024-03-02T06:15:09;1.97;;;1.33;;
12306;SDS011;6216;51.146;7.008;2024-03-02T06:17:37;1.57;;;1.30;;
12306;SDS011;6216;51.146;7.008;2024-03-02T06:20:06;2.33;;;1.47;;
12306;SDS011;6216;51.146;7.008;2024-03-02T06:22:36;3.07;;;1.40;;
12306;SDS011;6216;51.146;7.008;2024-03-02T06:25:04;1.67;;;1.57;;
12306;SDS011;6216;51.146;7.008;2024-03-02T06:27:33;2.03;;;1.37;;
12306;SDS011;6216;51.146;7.008;2024-03-02T06:30:01;1.30;;;1.20;;
12306;SDS011;6216;51.146;7.008;2024-03-02T06:32:30;1.80;;;1.70;;
12306;SDS011;6216;51.146;7.008;2024-03-02T06:34:59;1.70;;;1.43;;
12306;SDS011;6216;51.146;7.008;2024-03-02T06:37:27;1.97;;;1.43;;
12306;SDS011;6216;51.146;7.008;2024-03-02T06:39:57;1.87;;;1.37;;
12306;SDS011;6216;51.146;7.008;2024-03-02T06:42:25;2.57;;;1.70;;
12306;SDS011;6216;51.146;7.008;2024-03-02T06:44:54;1.80;;;1.40;;
12306;SDS011;6216;51.146;7.008;2024-03-02T06:47:22;1.93;;;1.40;;
12306;SDS011;6216;51.146;7.008;2024-03-02T06:49:50;1.83;;;1.50;;
12306;SDS011;6216;51.146;7.008;2024-03-02T06:52:19;2.27;;;1.40;;
12306;SDS011;6216;51.146;7.008;2024-03-02T06:54:50;2.07;;;1.60;;
12306;SDS011;6216;51.146;7.008;2024-03-02T06:57:20;1.70;;;1.53;;
12306;SDS011;6216;51.146;7.008;2024-03-02T06:59:50;4.10;;;1.53;;
12306;SDS011;6216;51.146;7.008;2024-03-02T07:02:21;3.57;;;1.53;;
12306;SDS011;6216;51.146;7.008;2024-03-02T07:04:49;4.17;;;1.57;;
12306;SDS011;6216;51.146;7.008;2024-03-02T07:07:17;2.97;;;1.80;;
12306;SDS011;6216;51.146;7.008;2024-03-02T07:09:45;2.53;;;1.47;;
12306;SDS011;6216;51.146;7.008;2024-03-02T07:12:14;5.40;;;2.13;;
12306;SDS011;6216;51.146;7.008;2024-03-02T07:14:45;2.40;;;1.97;;
12306;SDS011;6216;51.146;7.008;2024-03-02T07:17:32;2.23;;;1.93;;
12306;SDS011;6216;51.146;7.008;2024-03-02T07:20:00;1.70;;;1.60;;
12306;SDS011;6216;51.146;7.008;2024-03-02T07:22:29;1.77;;;1.63;;
12306;SDS011;6216;51.146;7.008;2024-03-02T07:24:57;3.80;;;1.63;;
12306;SDS011;6216;51.146;7.008;2024-03-02T07:27:25;2.67;;;1.80;;
12306;SDS011;6216;51.146;7.008;2024-03-02T07:29:55;2.67;;;1.63;;
12306;SDS011;6216;51.146;7.008;2024-03-02T07:32:23;2.00;;;1.70;;
12306;SDS011;6216;51.146;7.008;2024-03-02T07:34:51;2.73;;;1.60;;
12306;SDS011;6216;51.146;7.008;2024-03-02T07:37:19;1.83;;;1.73;;
12306;SDS011;6216;51.146;7.008;2024-03-02T07:39:48;1.80;;;1.50;;
12306;SDS011;6216;51.146;7.008;2024-03-02T07:42:16;3.13;;;1.50;;
12306;SDS011;6216;51.146;7.008;2024-03-02T07:44:44;3.27;;;1.53;;
12306;SDS011;6216;51.146;7.008;2024-03-02T07:47:14;3.00;;;1.93;;
12306;SDS011;6216;51.146;7.008;2024-03-02T07:49:44;2.67;;;1.53;;
12306;SDS011;6216;51.146;7.008;2024-03-02T07:52:12;2.23;;;1.43;;
12306;SDS011;6216;51.146;7.008;2024-03-02T07:54:41;2.70;;;1.40;;
12306;SDS011;6216;51.146;7.008;2024-03-02T07:57:09;2.40;;;1.63;;
12306;SDS011;6216;51.146;7.008;2024-03-02T07:59:37;2.00;;;1.53;;
12306;SDS011;6216;51.146;7.008;2024-03-02T08:02:06;3.63;;;1.60;;
12306;SDS011;6216;51.146;7.008;2024-03-02T08:04:36;2.53;;;1.80;;
12306;SDS011;6216;51.146;7.008;2024-03-02T08:07:04;1.70;;;1.60;;
12306;SDS011;6216;51.146;7.008;2024-03-02T08:09:32;2.20;;;1.80;;
12306;SDS011;6216;51.146;7.008;2024-03-02T08:12:01;3.07;;;1.30;;
12306;SDS011;6216;51.146;7.008;2024-03-02T08:14:29;3.20;;;1.53;;
12306;SDS011;6216;51.146;7.008;2024-03-02T08:16:58;4.17;;;1.40;;
12306;SDS011;6216;51.146;7.008;2024-03-02T08:19:27;1.73;;;1.60;;
12306;SDS011;6216;51.146;7.008;2024-03-02T08:21:57;2.00;;;1.43;;
12306;SDS011;6216;51.146;7.008;2024-03-02T08:24:26;1.60;;;1.37;;
12306;SDS011;6216;51.146;7.008;2024-03-02T08:26:54;2.00;;;1.33;;
12306;SDS011;6216;51.146;7.008;2024-03-02T08:29:23;2.37;;;1.30;;
12306;SDS011;6216;51.146;7.008;2024-03-02T08:31:51;3.43;;;1.50;;
12306;SDS011;6216;51.146;7.008;2024-03-02T08:34:19;2.30;;;1.53;;
12306;SDS011;6216;51.146;7.008;2024-03-02T08:36:47;2.43;;;1.57;;
12306;SDS011;6216;51.146;7.008;2024-03-02T08:39:17;1.67;;;1.57;;
12306;SDS011;6216;51.146;7.008;2024-03-02T08:41:47;2.03;;;1.50;;
12306;SDS011;6216;51.146;7.008;2024-03-02T08:44:16;1.47;;;1.33;;
12306;SDS011;6216;51.146;7.008;2024-03-02T08:46:44;3.03;;;1.30;;
12306;SDS011;6216;51.146;7.008;2024-03-02T08:49:13;1.37;;;1.20;;
12306;SDS011;6216;51.146;7.008;2024-03-02T08:51:41;1.90;;;1.53;;
12306;SDS011;6216;51.146;7.008;2024-03-02T08:54:09;1.60;;;1.27;;
12306;SDS011;6216;51.146;7.008;2024-03-02T08:56:39;1.43;;;1.30;;
12306;SDS011;6216;51.146;7.008;2024-03-02T08:59:07;1.93;;;1.10;;
12306;SDS011;6216;51.146;7.008;2024-03-02T09:01:35;1.40;;;1.30;;
12306;SDS011;6216;51.146;7.008;2024-03-02T09:04:08;1.93;;;1.30;;
12306;SDS011;6216;51.146;7.008;2024-03-02T09:06:36;2.17;;;1.30;;
12306;SDS011;6216;51.146;7.008;2024-03-02T09:09:04;2.17;;;1.20;;
12306;SDS011;6216;51.146;7.008;2024-03-02T09:11:33;1.20;;;0.90;;
12306;SDS011;6216;51.146;7.008;2024-03-02T09:14:02;6.73;;;1.20;;
12306;SDS011;6216;51.146;7.008;2024-03-02T09:16:31;1.93;;;1.10;;
12306;SDS011;6216;51.146;7.008;2024-03-02T09:18:59;2.17;;;0.90;;
12306;SDS011;6216;51.146;7.008;2024-03-02T09:21:28;0.87;;;0.87;;
12306;SDS011;6216;51.146;7.008;2024-03-02T09:23:57;3.33;;;1.30;;
12306;SDS011;6216;51.146;7.008;2024-03-02T09:26:25;1.07;;;0.97;;
12306;SDS011;6216;51.146;7.008;2024-03-02T09:28:53;1.83;;;1.00;;
12306;SDS011;6216;51.146;7.008;2024-03-02T09:31:22;1.90;;;0.87;;
12306;SDS011;6216;51.146;7.008;2024-03-02T09:33:50;1.97;;;1.30;;
12306;SDS011;6216;51.146;7.008;2024-03-02T09:36:19;1.83;;;1.13;;
12306;SDS011;6216;51.146;7.008;2024-03-02T09:38:48;2.10;;;1.23;;
12306;SDS011;6216;51.146;7.008;2024-03-02T09:41:16;1.50;;;0.87;;
12306;SDS011;6216;51.146;7.008;2024-03-02T09:43:45;1.53;;;0.80;;
12306;SDS011;6216;51.146;7.008;2024-03-02T09:46:14;1.50;;;1.00;;
12306;SDS011;6216;51.146;7.008;2024-03-02T09:48:45;2.03;;;0.90;;
12306;SDS011;6216;51.146;7.008;2024-03-02T09:51:13;0.97;;;0.87;;
12306;SDS011;6216;51.146;7.008;2024-03-02T09:53:45;1.90;;;0.70;;
12306;SDS011;6216;51.146;7.008;2024-03-02T09:56:15;1.33;;;1.10;;
12306;SDS011;6216;51.146;7.008;2024-03-02T09:58:44;2.93;;;0.90;;
12306;SDS011;6216;51.146;7.008;2024-03-02T10:01:12;1.10;;;0.73;;
12306;SDS011;6216;51.146;7.008;2024-03-02T10:03:41;2.00;;;0.70;;
12306;SDS011;6216;51.146;7.008;2024-03-02T10:06:21;1.87;;;0.83;;
12306;SDS011;6216;51.146;7.008;2024-03-02T10:08:50;1.00;;;0.67;;
12306;SDS011;6216;51.146;7.008;2024-03-02T10:11:27;3.30;;;1.00;;
12306;SDS011;6216;51.146;7.008;2024-03-02T10:14:06;3.60;;;0.90;;
12306;SDS011;6216;51.146;7.008;2024-03-02T10:16:35;2.97;;;0.77;;
12306;SDS011;6216;51.146;7.008;2024-03-02T10:19:15;1.30;;;0.90;;
12306;SDS011;6216;51.146;7.008;2024-03-02T10:21:45;1.50;;;0.60;;
12306;SDS011;6216;51.146;7.008;2024-03-02T10:24:13;2.20;;;0.70;;
12306;SDS011;6216;51.146;7.008;2024-03-02T10:26:41;1.60;;;0.70;;
12306;SDS011;6216;51.146;7.008;2024-03-02T10:29:10;2.20;;;1.00;;
12306;SDS011;6216;51.146;7.008;2024-03-02T10:31:38;2.17;;;0.70;;
12306;SDS011;6216;51.146;7.008;2024-03-02T10:34:07;2.30;;;0.83;;
12306;SDS011;6216;51.146;7.008;2024-03-02T10:36:36;1.63;;;1.10;;
12306;SDS011;6216;51.146;7.008;2024-03-02T10:39:06;1.67;;;1.10;;
12306;SDS011;6216;51.146;7.008;2024-03-02T10:41:35;1.40;;;0.70;;
12306;SDS011;6216;51.146;7.008;2024-03-02T10:44:04;2.10;;;0.90;;
12306;SDS011;6216;51.146;7.008;2024-03-02T10:46:33;1.40;;;1.00;;
12306;SDS011;6216;51.146;7.008;2024-03-02T10:49:02;1.77;;;0.80;;
12306;SDS011;6216;51.146;7.008;2024-03-02T10:51:34;1.00;;;0.90;;
12306;SDS011;6216;51.146;7.008;2024-03-02T10:54:05;3.90;;;0.90;;
12306;SDS011;6216;51.146;7.008;2024-03-02T10:56:34;2.53;;;0.87;;
12306;SDS011;6216;51.146;7.008;2024-03-02T10:59:08;1.70;;;0.97;;
12306;SDS011;6216;51.146;7.008;2024-03-02T11:01:40;1.53;;;0.87;;
12306;SDS011;6216;51.146;7.008;2024-03-02T11:04:12;1.60;;;0.90;;
12306;SDS011;6216;51.146;7.008;2024-03-02T11:06:41;2.77;;;1.30;;
12306;SDS011;6216;51.146;7.008;2024-03-02T11:09:13;1.73;;;0.70;;
12306;SDS011;6216;51.146;7.008;2024-03-02T11:11:42;1.80;;;0.83;;
12306;SDS011;6216;51.146;7.008;2024-03-02T11:14:13;1.00;;;0.90;;
12306;SDS011;6216;51.146;7.008;2024-03-02T11:16:41;2.30;;;0.80;;
12306;SDS011;6216;51.146;7.008;2024-03-02T11:19:10;0.90;;;0.70;;
12306;SDS011;6216;51.146;7.008;2024-03-02T11:21:43;2.37;;;0.80;;
12306;SDS011;6216;51.146;7.008;2024-03-02T11:24:32;2.23;;;0.70;;
12306;SDS011;6216;51.146;7.008;2024-03-02T11:27:04;3.93;;;1.07;;
12306;SDS011;6216;51.146;7.008;2024-03-02T11:29:43;1.57;;;0.83;;
12306;SDS011;6216;51.146;7.008;2024-03-02T11:32:13;1.23;;;0.63;;
12306;SDS011;6216;51.146;7.008;2024-03-02T11:34:42;2.20;;;0.70;;
12306;SDS011;6216;51.146;7.008;2024-03-02T11:37:12;1.93;;;0.77;;
12306;SDS011;6216;51.146;7.008;2024-03-02T11:39:43;1.70;;;0.50;;
12306;SDS011;6216;51.146;7.008;2024-03-02T11:42:12;3.37;;;1.00;;
12306;SDS011;6216;51.146;7.008;2024-03-02T11:44:42;0.97;;;0.60;;
12306;SDS011;6216;51.146;7.008;2024-03-02T11:47:11;2.27;;;0.80;;
12306;SDS011;6216;51.146;7.008;2024-03-02T11:49:43;0.77;;;0.60;;
12306;SDS011;6216;51.146;7.008;2024-03-02T11:52:12;1.07;;;0.77;;
12306;SDS011;6216;51.146;7.008;2024-03-02T11:54:45;1.93;;;0.83;;
12306;SDS011;6216;51.146;7.008;2024-03-02T11:57:14;1.87;;;0.70;;
12306;SDS011;6216;51.146;7.008;2024-03-02T11:59:42;1.53;;;0.90;;
12306;SDS011;6216;51.146;7.008;2024-03-02T12:02:15;2.93;;;0.77;;
12306;SDS011;6216;51.146;7.008;2024-03-02T12:04:44;3.50;;;0.80;;
12306;SDS011;6216;51.146;7.008;2024-03-02T12:07:18;2.00;;;0.80;;
12306;SDS011;6216;51.146;7.008;2024-03-02T12:09:48;0.50;;;0.50;;
12306;SDS011;6216;51.146;7.008;2024-03-02T12:12:16;1.07;;;0.60;;
12306;SDS011;6216;51.146;7.008;2024-03-02T12:14:50;1.13;;;0.60;;
12306;SDS011;6216;51.146;7.008;2024-03-02T12:17:18;0.83;;;0.70;;
12306;SDS011;6216;51.146;7.008;2024-03-02T12:19:46;0.50;;;0.50;;
12306;SDS011;6216;51.146;7.008;2024-03-02T12:22:15;0.80;;;0.40;;
12306;SDS011;6216;51.146;7.008;2024-03-02T12:24:43;2.20;;;0.50;;
12306;SDS011;6216;51.146;7.008;2024-03-02T12:27:13;0.60;;;0.40;;
12306;SDS011;6216;51.146;7.008;2024-03-02T12:29:43;0.50;;;0.50;;
12306;SDS011;6216;51.146;7.008;2024-03-02T12:32:11;1.50;;;0.70;;
12306;SDS011;6216;51.146;7.008;2024-03-02T12:34:39;1.83;;;0.60;;
12306;SDS011;6216;51.146;7.008;2024-03-02T12:37:07;0.83;;;0.60;;
12306;SDS011;6216;51.146;7.008;2024-03-02T12:39:39;1.03;;;0.70;;
12306;SDS011;6216;51.146;7.008;2024-03-02T12:42:07;0.50;;;0.50;;
12306;SDS011;6216;51.146;7.008;2024-03-02T12:44:37;1.90;;;0.60;;
12306;SDS011;6216;51.146;7.008;2024-03-02T12:47:05;1.03;;;0.67;;
12306;SDS011;6216;51.146;7.008;2024-03-02T12:49:34;1.53;;;0.60;;
12306;SDS011;6216;51.146;7.008;2024-03-02T12:52:03;0.60;;;0.60;;
12306;SDS011;6216;51.146;7.008;2024-03-02T12:54:31;0.70;;;0.70;;
12306;SDS011;6216;51.146;7.008;2024-03-02T12:57:00;1.20;;;0.90;;
12306;SDS011;6216;51.146;7.008;2024-03-02T12:59:30;1.97;;;1.10;;
12306;SDS011;6216;51.146;7.008;2024-03-02T13:02:00;2.47;;;0.90;;
12306;SDS011;6216;51.146;7.008;2024-03-02T13:04:28;1.13;;;0.90;;
12306;SDS011;6216;51.146;7.008;2024-03-02T13:06:57;1.80;;;0.90;;
12306;SDS011;6216;51.146;7.008;2024-03-02T13:09:26;1.43;;;0.63;;
12306;SDS011;6216;51.146;7.008;2024-03-02T13:11:54;0.70;;;0.67;;
12306;SDS011;6216;51.146;7.008;2024-03-02T13:14:23;3.37;;;0.80;;
12306;SDS011;6216;51.146;7.008;2024-03-02T13:16:52;0.80;;;0.80;;
12306;SDS011;6216;51.146;7.008;2024-03-02T13:19:22;0.90;;;0.70;;
12306;SDS011;6216;51.146;7.008;2024-03-02T13:21:50;1.00;;;0.80;;
12306;SDS011;6216;51.146;7.008;2024-03-02T13:24:18;0.90;;;0.60;;
12306;SDS011;6216;51.146;7.008;2024-03-02T13:26:49;0.60;;;0.60;;
12306;SDS011;6216;51.146;7.008;2024-03-02T13:29:21;2.40;;;0.60;;
12306;SDS011;6216;51.146;7.008;2024-03-02T13:31:49;1.77;;;0.47;;
12306;SDS011;6216;51.146;7.008;2024-03-02T13:34:19;0.60;;;0.60;;
12306;SDS011;6216;51.146;7.008;2024-03-02T13:36:48;2.00;;;0.70;;
12306;SDS011;6216;51.146;7.008;2024-03-02T13:39:16;1.23;;;0.60;;
12306;SDS011;6216;51.146;7.008;2024-03-02T13:41:45;0.80;;;0.60;;
12306;SDS011;6216;51.146;7.008;2024-03-02T13:44:19;0.90;;;0.67;;
12306;SDS011;6216;51.146;7.008;2024-03-02T13:46:47;4.03;;;0.70;;
12306;SDS011;6216;51.146;7.008;2024-03-02T13:49:17;0.63;;;0.60;;
12306;SDS011;6216;51.146;7.008;2024-03-02T13:51:45;0.70;;;0.60;;
12306;SDS011;6216;51.146;7.008;2024-03-02T13:54:15;0.93;;;0.70;;
12306;SDS011;6216;51.146;7.008;2024-03-02T13:56:44;0.43;;;0.40;;
12306;SDS011;6216;51.146;7.008;2024-03-02T13:59:12;0.70;;;0.70;;
12306;SDS011;6216;51.146;7.008;2024-03-02T14:01:41;0.87;;;0.60;;
12306;SDS011;6216;51.146;7.008;2024-03-02T14:04:10;2.20;;;0.80;;
12306;SDS011;6216;51.146;7.008;2024-03-02T14:06:38;1.97;;;0.43;;
12306;SDS011;6216;51.146;7.008;2024-03-02T14:09:09;0.40;;;0.40;;
12306;SDS011;6216;51.146;7.008;2024-03-02T14:11:39;1.17;;;0.60;;
12306;SDS011;6216;51.146;7.008;2024-03-02T14:14:07;1.00;;;0.50;;
12306;SDS011;6216;51.146;7.008;2024-03-02T14:16:35;0.80;;;0.60;;
12306;SDS011;6216;51.146;7.008;2024-03-02T14:19:04;0.70;;;0.60;;
12306;SDS011;6216;51.146;7.008;2024-03-02T14:21:32;0.80;;;0.80;;
12306;SDS011;6216;51.146;7.008;2024-03-02T14:24:02;2.67;;;0.70;;
12306;SDS011;6216;51.146;7.008;2024-03-02T14:26:30;2.17;;;1.00;;
12306;SDS011;6216;51.146;7.008;2024-03-02T14:29:00;1.13;;;0.80;;
12306;SDS011;6216;51.146;7.008;2024-03-02T14:31:29;1.00;;;0.70;;
12306;SDS011;6216;51.146;7.008;2024-03-02T14:33:58;1.83;;;0.80;;
12306;SDS011;6216;51.146;7.008;2024-03-02T14:36:26;1.87;;;0.80;;
12306;SDS011;6216;51.146;7.008;2024-03-02T14:38:55;0.50;;;0.50;;
12306;SDS011;6216;51.146;7.008;2024-03-02T14:41:23;1.10;;;0.60;;
12306;SDS011;6216;51.146;7.008;2024-03-02T14:43:51;1.30;;;0.50;;
12306;SDS011;6216;51.146;7.008;2024-03-02T14:46:21;0.43;;;0.43;;
12306;SDS011;6216;51.146;7.008;2024-03-02T14:48:50;1.23;;;0.50;;
12306;SDS011;6216;51.146;7.008;2024-03-02T14:51:18;0.60;;;0.50;;
12306;SDS011;6216;51.146;7.008;2024-03-02T14:53:46;0.63;;;0.63;;
12306;SDS011;6216;51.146;7.008;2024-03-02T14:56:15;0.90;;;0.57;;
12306;SDS011;6216;51.146;7.008;2024-03-02T14:58:43;1.70;;;0.83;;
12306;SDS011;6216;51.146;7.008;2024-03-02T15:01:12;0.83;;;0.50;;
12306;SDS011;6216;51.146;7.008;2024-03-02T15:03:43;0.60;;;0.60;;
12306;SDS011;6216;51.146;7.008;2024-03-02T15:06:11;0.60;;;0.50;;
12306;SDS011;6216;51.146;7.008;2024-03-02T15:08:40;0.60;;;0.50;;
12306;SDS011;6216;51.146;7.008;2024-03-02T15:11:08;1.73;;;1.03;;
12306;SDS011;6216;51.146;7.008;2024-03-02T15:13:37;1.87;;;1.00;;